createdAt,value
2018-08-23T00:01:56.842Z,25.57
2018-08-23T00:04:26.460Z,26.47
2018-08-23T00:07:07.240Z,26.13
2018-08-23T00:09:49.557Z,25.60
2018-08-23T00:12:23.322Z,20.87
2018-08-23T00:14:52.958Z,25.23
2018-08-23T00:17:22.592Z,25.03
2018-08-23T00:19:52.221Z,26.33
2018-08-23T00:22:27.232Z,24.70
2018-08-23T00:25:13.514Z,25.87
2018-08-23T00:27:46.655Z,25.60
2018-08-23T00:30:24.404Z,28.57
2018-08-23T00:32:54.254Z,27.97
2018-08-23T00:35:23.887Z,28.83
2018-08-23T00:37:53.547Z,28.13
2018-08-23T00:40:23.218Z,28.57
2018-08-23T00:42:57.918Z,27.13
2018-08-23T00:45:35.731Z,26.00
2018-08-23T00:48:05.618Z,28.83
2018-08-23T00:51:05.846Z,29.33
2018-08-23T00:53:36.781Z,30.10
2018-08-23T00:56:20.482Z,28.97
2018-08-23T00:58:55.313Z,28.87
2018-08-23T01:01:24.983Z,30.67
2018-08-23T01:03:55.118Z,31.40
2018-08-23T01:06:34.692Z,30.47
2018-08-23T01:09:04.802Z,27.60
2018-08-23T01:11:58.286Z,29.57
2018-08-23T01:14:27.962Z,30.77
2018-08-23T01:17:14.814Z,30.40
2018-08-23T01:19:49.801Z,29.93
2018-08-23T01:25:24.049Z,30.80
2018-08-23T01:30:39.702Z,29.90
2018-08-23T01:33:13.052Z,30.53
2018-08-23T01:35:44.018Z,28.57
2018-08-23T01:38:28.906Z,31.90
2018-08-23T01:41:03.646Z,31.90
2018-08-23T01:43:33.326Z,31.43
2018-08-23T01:46:38.938Z,30.93
2018-08-23T01:49:08.622Z,32.93
2018-08-23T01:51:38.317Z,33.13
2018-08-23T01:54:07.982Z,37.73
2018-08-23T01:56:37.633Z,33.83
2018-08-23T01:59:07.323Z,34.60
2018-08-23T02:01:37.036Z,36.50
2018-08-23T02:04:24.990Z,35.90
2018-08-23T02:10:17.162Z,35.57
2018-08-23T02:13:13.350Z,30.10
2018-08-23T02:15:48.143Z,34.93
2018-08-23T02:18:17.755Z,39.20
2018-08-23T02:23:57.236Z,35.20
2018-08-23T02:30:03.396Z,37.60
2018-08-23T02:32:33.213Z,39.57
2018-08-23T02:35:05.983Z,35.50
2018-08-23T02:37:35.610Z,38.40
2018-08-23T02:40:05.325Z,37.47
2018-08-23T02:42:53.765Z,39.93
2018-08-23T02:45:23.624Z,40.93
2018-08-23T02:47:53.287Z,36.57
2018-08-23T02:50:26.365Z,40.07
2018-08-23T02:53:00.064Z,38.47
2018-08-23T02:55:29.809Z,37.50
2018-08-23T02:58:01.432Z,35.33
2018-08-23T03:00:36.353Z,35.80
2018-08-23T03:03:29.694Z,35.77
2018-08-23T03:05:59.343Z,33.73
2018-08-23T03:08:42.890Z,33.90
2018-08-23T03:11:29.470Z,34.87
2018-08-23T03:13:59.769Z,35.27
2018-08-23T03:16:46.128Z,36.17
2018-08-23T03:19:35.504Z,38.30
2018-08-23T03:22:05.744Z,46.03
2018-08-23T03:24:36.015Z,44.67
2018-08-23T03:27:06.225Z,44.57
2018-08-23T03:30:06.753Z,44.33
2018-08-23T03:32:36.925Z,47.10
2018-08-23T03:35:07.893Z,37.57
2018-08-23T03:37:38.002Z,41.20
2018-08-23T03:40:10.274Z,39.87
2018-08-23T03:42:40.486Z,39.30
2018-08-23T03:45:16.245Z,39.20
2018-08-23T03:47:53.503Z,40.10
2018-08-23T03:50:23.628Z,37.57
2018-08-23T03:53:06.965Z,36.83
2018-08-23T03:55:37.262Z,37.50
2018-08-23T03:58:07.330Z,37.03
2018-08-23T04:01:04.575Z,39.33
2018-08-23T04:03:39.891Z,42.73
2018-08-23T04:07:21.751Z,40.20
2018-08-23T04:09:51.775Z,40.73
2018-08-23T04:12:40.302Z,35.93
2018-08-23T04:15:35.509Z,38.67
2018-08-23T04:18:17.242Z,43.80
2018-08-23T04:20:55.268Z,43.90
2018-08-23T04:23:25.522Z,38.30
2018-08-23T04:25:55.672Z,36.67
2018-08-23T04:28:26.148Z,35.90
2018-08-23T04:30:56.241Z,37.57
2018-08-23T04:33:25.911Z,38.47
2018-08-23T04:35:56.117Z,35.93
2018-08-23T04:38:26.365Z,38.50
2018-08-23T04:41:02.232Z,35.60
2018-08-23T04:43:31.908Z,41.40
2018-08-23T04:46:06.090Z,36.83
2018-08-23T04:48:36.336Z,38.40
2018-08-23T04:51:06.406Z,40.53
2018-08-23T04:53:36.388Z,41.47
2018-08-23T04:56:06.226Z,44.37
2018-08-23T04:58:36.478Z,41.73
2018-08-23T05:01:06.138Z,40.00
2018-08-23T05:03:35.816Z,38.53
2018-08-23T05:06:08.778Z,43.30
2018-08-23T05:08:38.418Z,42.87
2018-08-23T05:11:08.067Z,43.97
2018-08-23T05:13:37.751Z,43.03
2018-08-23T05:16:07.519Z,41.40
2018-08-23T05:18:37.181Z,42.50
2018-08-23T05:21:07.039Z,44.00
2018-08-23T05:23:36.797Z,42.17
2018-08-23T05:26:11.623Z,46.87
2018-08-23T05:28:43.526Z,46.50
2018-08-23T05:34:18.649Z,41.10
2018-08-23T05:36:48.292Z,41.67
2018-08-23T05:39:20.239Z,42.17
2018-08-23T05:41:52.129Z,44.90
2018-08-23T05:44:58.709Z,49.80
2018-08-23T05:47:32.052Z,53.47
2018-08-23T05:50:01.730Z,54.93
2018-08-23T05:52:31.387Z,57.33
2018-08-23T05:55:01.029Z,61.73
2018-08-23T05:57:31.667Z,54.90
2018-08-23T06:00:11.674Z,59.33
2018-08-23T06:02:41.341Z,51.67
2018-08-23T06:05:37.653Z,58.43
2018-08-23T06:08:07.920Z,53.30
2018-08-23T06:10:37.597Z,56.33
2018-08-23T06:13:08.142Z,59.03
2018-08-23T06:15:42.886Z,60.47
2018-08-23T06:18:12.514Z,57.47
2018-08-23T06:20:41.117Z,51.03
2018-08-23T06:23:39.427Z,56.60
2018-08-23T06:26:09.361Z,61.97
2018-08-23T06:31:59.042Z,64.10
2018-08-23T06:34:36.271Z,58.50
2018-08-23T06:37:05.998Z,59.00
2018-08-23T06:39:35.664Z,60.53
2018-08-23T06:42:05.543Z,64.13
2018-08-23T06:44:42.401Z,64.07
2018-08-23T06:47:28.503Z,62.03
2018-08-23T06:49:59.236Z,60.90
2018-08-23T06:52:38.705Z,65.33
2018-08-23T06:55:13.783Z,67.13
2018-08-23T06:57:46.502Z,77.83
2018-08-23T07:00:21.441Z,71.50
2018-08-23T07:03:05.052Z,64.93
2018-08-23T07:05:55.557Z,70.60
2018-08-23T07:08:25.918Z,66.87
2018-08-23T07:16:34.705Z,70.47
2018-08-23T07:20:09.699Z,65.70
2018-08-23T07:23:17.660Z,65.30
2018-08-23T07:25:47.263Z,71.33
2018-08-23T07:28:16.876Z,70.87
2018-08-23T07:33:58.589Z,69.70
2018-08-23T07:36:30.049Z,77.97
2018-08-23T07:38:59.694Z,65.43
2018-08-23T07:41:57.740Z,64.77
2018-08-23T07:44:56.506Z,67.13
2018-08-23T07:47:55.491Z,70.10
2018-08-23T07:50:25.266Z,63.63
2018-08-23T08:06:48.724Z,51.73
2018-08-23T08:12:23.166Z,49.33
2018-08-23T08:14:53.843Z,48.87
2018-08-23T08:17:29.368Z,47.67
2018-08-23T08:19:59.250Z,43.03
2018-08-23T08:22:28.902Z,48.13
2018-08-23T08:25:21.606Z,43.80
2018-08-23T08:27:51.329Z,35.90
2018-08-23T08:30:57.270Z,37.37
2018-08-23T08:33:31.813Z,41.30
2018-08-23T08:36:02.934Z,37.13
2018-08-23T08:38:33.089Z,39.40
2018-08-23T08:41:02.748Z,35.43
2018-08-23T08:43:32.411Z,35.23
2018-08-23T08:46:02.094Z,30.53
2018-08-23T08:48:36.029Z,25.43
2018-08-23T08:51:21.217Z,22.50
2018-08-23T08:53:51.287Z,20.97
2018-08-23T08:57:19.037Z,20.80
2018-08-23T08:59:48.654Z,19.97
2018-08-23T09:02:18.447Z,21.30
2018-08-23T09:04:48.114Z,18.03
2018-08-23T09:07:28.906Z,19.03
2018-08-23T09:13:01.352Z,16.50
2018-08-23T09:15:30.979Z,17.80
2018-08-23T09:18:00.627Z,18.63
2018-08-23T09:20:30.327Z,17.40
2018-08-23T09:23:28.700Z,14.60
2018-08-23T09:25:58.851Z,22.60
2018-08-23T09:28:28.582Z,18.87
2018-08-23T09:30:58.269Z,11.93
2018-08-23T09:33:28.986Z,17.03
2018-08-23T09:38:59.721Z,13.93
2018-08-23T09:41:34.885Z,16.00
2018-08-23T09:44:27.389Z,11.80
2018-08-23T09:47:01.214Z,13.17
2018-08-23T09:52:32.529Z,14.27
2018-08-23T09:55:02.214Z,12.40
2018-08-23T09:57:31.881Z,13.13
2018-08-23T10:00:01.550Z,15.20
2018-08-23T10:02:42.031Z,15.23
2018-08-23T10:05:16.704Z,11.37
2018-08-23T10:07:58.167Z,13.60
2018-08-23T10:10:32.858Z,13.40
2018-08-23T10:13:13.656Z,16.40
2018-08-23T10:15:45.401Z,15.53
2018-08-23T10:21:59.730Z,18.97
2018-08-23T10:24:54.870Z,21.63
2018-08-23T10:27:50.657Z,16.67
2018-08-23T10:30:20.714Z,17.90
2018-08-23T10:32:50.999Z,16.60
2018-08-23T10:35:36.179Z,18.50
2018-08-23T10:38:07.328Z,19.90
2018-08-23T10:40:37.596Z,19.27
2018-08-23T10:43:07.848Z,17.53
2018-08-23T10:45:38.086Z,16.43
2018-08-23T10:48:13.460Z,19.30
2018-08-23T10:50:44.014Z,18.80
2018-08-23T10:53:14.561Z,19.87
2018-08-23T10:55:45.310Z,17.17
2018-08-23T10:58:15.574Z,15.90
2018-08-23T11:00:45.257Z,18.37
2018-08-23T11:03:14.915Z,17.07
2018-08-23T11:06:08.662Z,17.33
2018-08-23T11:14:40.617Z,15.23
2018-08-23T11:17:15.545Z,11.90
2018-08-23T11:23:05.073Z,11.67
2018-08-23T11:25:35.242Z,10.47
2018-08-23T11:28:09.950Z,9.33
2018-08-23T11:33:45.574Z,9.43
2018-08-23T11:36:33.768Z,8.17
2018-08-23T11:47:07.688Z,10.67
2018-08-23T11:49:37.407Z,8.87
2018-08-23T11:52:13.285Z,8.70
2018-08-23T11:54:42.898Z,9.83
2018-08-23T11:57:33.470Z,11.83
2018-08-23T12:00:03.241Z,7.53
2018-08-23T12:02:42.384Z,8.53
2018-08-23T12:05:13.813Z,7.73
2018-08-23T12:08:02.887Z,6.83
2018-08-23T12:24:21.052Z,6.50
2018-08-23T12:26:50.817Z,6.40
2018-08-23T12:29:20.484Z,7.40
2018-08-23T12:31:50.263Z,6.20
2018-08-23T12:34:34.648Z,5.67
2018-08-23T12:37:09.810Z,5.50
2018-08-23T12:39:44.539Z,5.70
2018-08-23T12:42:19.281Z,7.10
2018-08-23T12:45:03.420Z,7.23
2018-08-23T12:47:33.054Z,6.93
2018-08-23T12:50:06.361Z,7.20
2018-08-23T12:52:35.943Z,6.47
2018-08-23T12:55:05.643Z,7.60
2018-08-23T12:57:35.322Z,5.00
2018-08-23T13:00:07.831Z,5.53
2018-08-23T13:02:40.951Z,4.70
2018-08-23T13:05:10.948Z,7.23
2018-08-23T13:07:40.521Z,4.33
2018-08-23T13:10:10.234Z,4.97
2018-08-23T13:12:47.030Z,4.17
2018-08-23T13:15:16.876Z,4.77
2018-08-23T13:17:46.510Z,5.30
2018-08-23T13:20:16.154Z,5.07
2018-08-23T13:22:45.822Z,5.57
2018-08-23T13:25:16.065Z,6.93
2018-08-23T13:27:45.754Z,7.33
2018-08-23T13:30:19.794Z,5.53
2018-08-23T13:32:49.540Z,5.53
2018-08-23T13:35:19.216Z,5.80
2018-08-23T13:37:59.123Z,5.53
2018-08-23T13:40:29.326Z,9.20
2018-08-23T13:42:59.774Z,6.37
2018-08-23T13:45:31.182Z,6.90
2018-08-23T13:48:02.702Z,7.73
2018-08-23T13:50:32.425Z,9.80
2018-08-23T13:53:02.066Z,8.53
2018-08-23T13:55:34.013Z,5.50
2018-08-23T13:58:05.390Z,7.57
2018-08-23T14:00:41.146Z,6.37
2018-08-23T14:03:23.005Z,5.87
2018-08-23T14:05:52.650Z,5.83
2018-08-23T14:08:22.256Z,4.43
2018-08-23T14:10:56.025Z,6.30
2018-08-23T14:13:36.069Z,6.70
2018-08-23T14:16:17.303Z,5.50
2018-08-23T14:18:48.977Z,7.10
2018-08-23T14:21:20.911Z,5.30
2018-08-23T14:23:50.841Z,6.10
2018-08-23T14:26:20.524Z,6.43
2018-08-23T14:28:50.178Z,5.00
2018-08-23T14:31:21.306Z,5.57
2018-08-23T14:33:50.918Z,6.03
2018-08-23T14:36:34.773Z,6.70
2018-08-23T14:39:11.923Z,10.73
2018-08-23T14:41:41.663Z,6.83
2018-08-23T14:44:11.408Z,6.73
2018-08-23T14:46:46.060Z,7.97
2018-08-23T14:49:38.341Z,13.53
2018-08-23T14:52:19.383Z,6.33
2018-08-23T14:54:49.266Z,6.87
2018-08-23T15:00:14.623Z,7.47
2018-08-23T15:02:44.294Z,7.63
2018-08-23T15:05:13.922Z,7.77
2018-08-23T15:08:00.160Z,11.30
2018-08-23T15:10:36.861Z,7.93
2018-08-23T15:13:06.735Z,7.77
2018-08-23T15:15:41.364Z,7.67
2018-08-23T15:18:30.295Z,9.03
2018-08-23T15:21:01.529Z,8.70
2018-08-23T15:23:32.202Z,8.90
2018-08-23T15:26:29.178Z,8.40
2018-08-23T15:29:01.994Z,13.87
2018-08-23T15:31:32.073Z,7.53
2018-08-23T15:34:12.952Z,14.57
2018-08-23T15:36:42.777Z,9.83
2018-08-23T15:39:14.402Z,7.73
2018-08-23T15:41:44.119Z,6.97
2018-08-23T15:44:14.679Z,6.90
2018-08-23T15:47:43.728Z,8.20
2018-08-23T15:50:13.461Z,7.73
2018-08-23T15:52:43.083Z,9.30
2018-08-23T15:55:12.911Z,9.10
2018-08-23T15:57:42.379Z,9.70
2018-08-23T16:00:12.055Z,8.87
2018-08-23T16:02:41.669Z,9.07
2018-08-23T16:05:11.334Z,8.90
2018-08-23T16:07:40.974Z,10.03
2018-08-23T16:10:17.441Z,8.80
2018-08-23T16:12:50.627Z,9.30
2018-08-23T16:15:21.869Z,8.90
2018-08-23T16:17:57.985Z,8.97
2018-08-23T16:20:35.627Z,9.50
2018-08-23T16:23:05.336Z,9.27
2018-08-23T16:25:40.194Z,11.70
2018-08-23T16:28:10.110Z,11.67
2018-08-23T16:30:46.321Z,12.70
2018-08-23T16:33:15.950Z,12.93
2018-08-23T16:35:46.494Z,14.13
2018-08-23T16:38:16.123Z,10.63
2018-08-23T16:41:17.722Z,11.40
2018-08-23T16:43:47.367Z,12.33
2018-08-23T16:46:17.163Z,10.23
2018-08-23T16:48:46.898Z,13.03
2018-08-23T16:51:16.487Z,10.10
2018-08-23T16:53:46.149Z,12.70
2018-08-23T16:56:15.834Z,13.17
2018-08-23T16:58:45.474Z,11.70
2018-08-23T17:01:15.110Z,12.47
2018-08-23T17:03:48.756Z,12.57
2018-08-23T17:06:18.562Z,10.73
2018-08-23T17:08:59.160Z,10.33
2018-08-23T17:11:28.990Z,11.03
2018-08-23T17:13:58.819Z,8.30
2018-08-23T17:16:33.728Z,15.23
2018-08-23T17:19:06.766Z,9.40
2018-08-23T17:21:36.490Z,9.13
2018-08-23T17:24:06.122Z,7.87
2018-08-23T17:26:35.753Z,9.80
2018-08-23T17:29:05.579Z,8.17
2018-08-23T17:31:35.333Z,9.90
2018-08-23T17:34:04.977Z,7.80
2018-08-23T17:36:36.135Z,7.53
2018-08-23T17:39:09.792Z,8.70
2018-08-23T17:41:39.478Z,9.13
2018-08-23T17:44:09.186Z,7.83
2018-08-23T17:46:38.861Z,10.20
2018-08-23T17:49:09.499Z,8.37
2018-08-23T17:51:44.827Z,8.07
2018-08-23T17:54:14.503Z,8.80
2018-08-23T17:56:44.175Z,10.87
2018-08-23T17:59:13.798Z,9.10
2018-08-23T18:01:43.419Z,9.00
2018-08-23T18:04:13.101Z,11.03
2018-08-23T18:06:42.884Z,11.77
2018-08-23T18:09:23.995Z,13.57
2018-08-23T18:11:53.688Z,11.43
2018-08-23T18:14:23.290Z,13.50
2018-08-23T18:16:58.911Z,11.53
2018-08-23T18:19:28.874Z,11.50
2018-08-23T18:21:58.973Z,10.77
2018-08-23T18:24:28.581Z,11.80
2018-08-23T18:26:58.225Z,11.97
2018-08-23T18:29:27.837Z,12.23
2018-08-23T18:31:57.505Z,12.37
2018-08-23T18:34:27.108Z,9.93
2018-08-23T18:36:56.737Z,9.57
2018-08-23T18:39:26.345Z,11.90
2018-08-23T18:41:55.962Z,10.73
2018-08-23T18:44:25.593Z,10.47
2018-08-23T18:46:56.471Z,11.77
2018-08-23T18:49:27.051Z,11.10
2018-08-23T18:51:56.738Z,10.10
2018-08-23T18:54:26.479Z,11.13
2018-08-23T18:57:02.675Z,9.50
2018-08-23T18:59:33.423Z,10.40
2018-08-23T19:02:04.574Z,21.37
2018-08-23T19:04:34.345Z,10.90
2018-08-23T19:07:04.069Z,9.17
2018-08-23T19:09:38.043Z,10.73
2018-08-23T19:12:07.900Z,9.50
2018-08-23T19:14:37.529Z,9.33
2018-08-23T19:17:12.481Z,10.10
2018-08-23T19:19:45.042Z,9.60
2018-08-23T19:22:14.841Z,11.10
2018-08-23T19:24:44.931Z,8.93
2018-08-23T19:27:19.274Z,9.30
2018-08-23T19:29:49.294Z,9.60
2018-08-23T19:32:26.854Z,9.73
2018-08-23T19:34:56.442Z,8.87
2018-08-23T19:37:26.080Z,10.20
2018-08-23T19:39:55.710Z,8.47
2018-08-23T19:42:25.612Z,8.87
2018-08-23T19:44:58.121Z,7.83
2018-08-23T19:47:32.916Z,9.33
2018-08-23T19:50:03.770Z,8.67
2018-08-23T19:52:33.422Z,8.77
2018-08-23T19:55:03.038Z,8.77
2018-08-23T19:57:45.881Z,9.13
2018-08-23T20:00:44.269Z,9.07
2018-08-23T20:03:14.264Z,8.70
2018-08-23T20:05:43.902Z,10.80
2018-08-23T20:08:16.022Z,8.37
2018-08-23T20:10:45.679Z,8.67
2018-08-23T20:13:15.345Z,10.40
2018-08-23T20:15:44.978Z,9.67
2018-08-23T20:18:14.679Z,10.90
2018-08-23T20:20:44.389Z,9.30
2018-08-23T20:23:14.038Z,9.03
2018-08-23T20:25:43.717Z,7.40
2018-08-23T20:28:17.734Z,7.67
2018-08-23T20:30:47.395Z,8.13
2018-08-23T20:33:17.566Z,7.07
2018-08-23T20:35:47.843Z,7.20
2018-08-23T20:38:17.493Z,7.83
2018-08-23T20:40:47.194Z,8.27
2018-08-23T20:43:23.452Z,7.53
2018-08-23T20:49:02.858Z,8.30
2018-08-23T20:51:32.445Z,6.80
2018-08-23T20:54:02.096Z,7.83
2018-08-23T20:56:43.363Z,6.40
2018-08-23T20:59:13.073Z,7.97
2018-08-23T21:01:42.663Z,9.50
2018-08-23T21:04:12.362Z,6.43
2018-08-23T21:06:41.935Z,6.77
2018-08-23T21:09:13.226Z,7.40
2018-08-23T21:11:42.826Z,8.33
2018-08-23T21:14:12.490Z,7.70
2018-08-23T21:16:42.147Z,7.20
2018-08-23T21:19:14.335Z,7.70
2018-08-23T21:21:44.038Z,7.13
2018-08-23T21:24:13.677Z,7.07
2018-08-23T21:26:49.329Z,6.90
2018-08-23T21:29:19.090Z,6.53
2018-08-23T21:31:48.769Z,7.13
2018-08-23T21:34:18.400Z,7.37
2018-08-23T21:36:48.075Z,6.13
2018-08-23T21:39:17.673Z,6.73
2018-08-23T21:41:47.320Z,5.97
2018-08-23T21:44:16.954Z,6.30
2018-08-23T21:46:49.780Z,6.20
2018-08-23T21:49:19.485Z,7.67
2018-08-23T21:51:49.111Z,6.83
2018-08-23T21:54:18.754Z,6.33
2018-08-23T21:56:49.835Z,6.40
2018-08-23T21:59:19.620Z,6.90
2018-08-23T22:01:51.313Z,6.23
2018-08-23T22:04:20.929Z,6.00
2018-08-23T22:06:50.527Z,6.27
2018-08-23T22:09:23.149Z,7.07
2018-08-23T22:11:52.831Z,5.13
2018-08-23T22:14:22.458Z,5.70
2018-08-23T22:16:52.139Z,6.23
2018-08-23T22:22:00.006Z,5.23
2018-08-23T22:24:29.669Z,5.03
2018-08-23T22:26:59.322Z,4.60
2018-08-23T22:29:38.043Z,4.70
2018-08-23T22:32:09.900Z,4.13
2018-08-23T22:34:39.649Z,4.37
2018-08-23T22:37:09.272Z,4.67
2018-08-23T22:39:38.975Z,3.97
2018-08-23T22:42:08.677Z,4.43
2018-08-23T22:44:38.395Z,5.97
2018-08-23T22:47:08.031Z,4.40
2018-08-23T22:49:37.653Z,3.30
2018-08-23T22:52:07.283Z,4.57
2018-08-23T22:54:37.069Z,3.90
2018-08-23T22:57:08.009Z,3.63
2018-08-23T22:59:38.289Z,3.57
2018-08-23T23:02:08.058Z,4.17
2018-08-23T23:04:37.674Z,3.60
2018-08-23T23:09:46.642Z,3.13
2018-08-23T23:12:16.237Z,5.00
2018-08-23T23:14:50.007Z,3.30
2018-08-23T23:17:19.687Z,5.17
2018-08-23T23:19:56.367Z,3.10
2018-08-23T23:22:26.269Z,3.37
2018-08-23T23:25:05.886Z,3.53
2018-08-23T23:27:36.534Z,4.00
2018-08-23T23:30:07.028Z,2.63
2018-08-23T23:32:36.784Z,3.60
2018-08-23T23:35:07.014Z,3.27
2018-08-23T23:44:09.803Z,2.40
2018-08-23T23:46:39.967Z,4.20
2018-08-23T23:49:22.411Z,4.00
2018-08-23T23:52:16.338Z,3.07
2018-08-23T23:54:50.228Z,3.60
2018-08-23T23:57:45.848Z,4.03
